Hlavní strana
METAR-TAF:

METAR-TAF

Letiště :

Kóči, Japonsko

zeměpisná šířka: 33-32N, zeměpisná délka: 133-40E, výška: 7 m

Aktuální stav počasí

Zpráva byla vytvořena před 4 hodinami a 27 minutami, v 11:00 UTC
Severoseverozápadní vítr 9 kt
Teplota 10°C
Vlhkost vzduchu 46%
Tlak 1015 hPa
Viditelnost 10 km a více
Žádná oblačnost pod 1500 m, nevyskytují se cumulonimby.

METAR: RJOK 161100Z 34009KT CAVOK 10/M01 Q1015

Čas: 00:27 (15:27 UTC)

Předpověď počasí

Zpráva byla vytvořena před 4 hodinami a 18 minutami, v 11:09 UTC
Předpověď platná od 16 v 12 UTC do 17 v 18 UTC
Severoseverozápadní vítr 8 kt
Viditelnost 10 km a více
Skoro jasno ve výšce 3000 ft

TAF: RJOK 161109Z 1612/1718 34008KT 9999 FEW030

Stav a předpovědi počasí z více než 4 000 letišť (zprávy METAR a TAF).

Červené a žluté tečky na mapě představují dostupné meteorologické stanice.

Když kurzor umístíte na tečku, zobrazí se název stanice.

Pak kliknutím zobrazíte stav a předpověď počasí.

Chcete-li změnit mapu, kliknutím na zelené tlačítko se znaménkem +mapu přiblížíte, kliknutím na zelené tlačítko se znaménkem – mapu oddálíte a kliknutím na zelené šipky přejdete na sousední mapy.


METAR-TAF: